Flin Flon, Flin Flon Airport (CYFO)

NameFlin Flon Airport
CityFlin Flon
CountryCanada
ICAOCYFO
IATAYFO
Altitude304 m
CoordinatesGoogle Map
Live Air TrafficLiveATC.net
METARCYFO 172000Z 15013G20KT 15SM FEW150 FEW250 01/M05 A2995 RMK AC1CI2 AC TR SLP165
2018-10-17 20:00:00 Wind: Southeast (150°) 6.69 m/s - Visibility: 24140.1 m - Temperature: 1 °C - Dew point: -5 °C - Humidity: 64.6% - Pressure: 1014.22 hPa

Sorry, no flights used the airport in this database.